createdAt,value
2022-11-30T00:01:18.311Z,3.31
2022-11-30T00:03:45.347Z,3.36
2022-11-30T00:06:17.118Z,3.53
2022-11-30T00:08:44.045Z,3.56
2022-11-30T00:11:10.974Z,3.33
2022-11-30T00:13:37.659Z,3.31
2022-11-30T00:16:04.845Z,3.37
2022-11-30T00:18:31.616Z,3.32
2022-11-30T00:21:03.256Z,3.36
2022-11-30T00:23:41.091Z,3.35
2022-11-30T00:26:11.783Z,3.38
2022-11-30T00:28:39.282Z,3.43
2022-11-30T00:31:10.128Z,3.26
2022-11-30T00:33:38.419Z,3.34
2022-11-30T00:36:12.240Z,3.36
2022-11-30T00:38:39.311Z,3.31
2022-11-30T00:41:07.674Z,3.36
2022-11-30T00:43:34.322Z,3.28
2022-11-30T00:46:01.314Z,3.14
2022-11-30T00:48:28.501Z,3.28
2022-11-30T00:50:55.228Z,3.01
2022-11-30T00:53:22.590Z,2.98
2022-11-30T00:55:49.705Z,2.97
2022-11-30T00:58:16.533Z,3.08
2022-11-30T01:00:43.479Z,3.01
2022-11-30T01:03:10.531Z,3.17
2022-11-30T01:05:37.258Z,3.24
2022-11-30T01:08:06.190Z,2.91
2022-11-30T01:10:33.803Z,2.97
2022-11-30T01:13:01.153Z,2.94
2022-11-30T01:15:28.029Z,2.85
2022-11-30T01:17:54.778Z,3.07
2022-11-30T01:20:21.868Z,2.91
2022-11-30T01:22:48.443Z,3.07
2022-11-30T01:25:15.175Z,3.22
2022-11-30T01:27:42.087Z,3.29
2022-11-30T01:30:09.401Z,3.26
2022-11-30T01:32:36.064Z,3.34
2022-11-30T01:35:02.720Z,3.33
2022-11-30T01:37:30.217Z,3.23
2022-11-30T01:39:57.150Z,3.46
2022-11-30T01:42:24.385Z,3.46
2022-11-30T01:44:54.886Z,3.55
2022-11-30T01:47:45.310Z,3.55
2022-11-30T01:50:24.385Z,3.39
2022-11-30T01:52:54.092Z,3.35
2022-11-30T01:55:24.521Z,3.47
2022-11-30T01:58:09.797Z,3.49
2022-11-30T02:00:36.424Z,3.37
2022-11-30T02:03:24.680Z,3.46
2022-11-30T02:05:51.404Z,3.50
2022-11-30T02:08:19.470Z,3.27
2022-11-30T02:10:53.049Z,3.41
2022-11-30T02:13:25.772Z,3.35
2022-11-30T02:16:29.584Z,3.36
2022-11-30T02:19:05.417Z,3.52
2022-11-30T02:22:07.059Z,3.51
2022-11-30T02:25:14.437Z,3.19
2022-11-30T02:27:59.331Z,3.39
2022-11-30T02:30:26.359Z,3.23
2022-11-30T02:33:07.155Z,3.26
2022-11-30T02:35:37.120Z,3.17
2022-11-30T02:38:05.277Z,3.55
2022-11-30T02:40:32.329Z,3.56
2022-11-30T02:43:02.436Z,3.50
2022-11-30T02:45:58.484Z,3.68
2022-11-30T02:49:09.351Z,3.73
2022-11-30T02:51:38.779Z,3.57
2022-11-30T02:54:05.653Z,3.68
2022-11-30T02:56:33.619Z,3.71
2022-11-30T02:59:00.577Z,3.58
2022-11-30T03:01:27.356Z,3.66
2022-11-30T03:03:54.227Z,3.85
2022-11-30T03:06:20.899Z,3.84
2022-11-30T03:08:47.592Z,3.80
2022-11-30T03:11:14.211Z,3.63
2022-11-30T03:13:40.832Z,3.94
2022-11-30T03:16:14.014Z,3.75
2022-11-30T03:18:40.992Z,4.06
2022-11-30T03:21:09.812Z,4.02
2022-11-30T03:23:37.341Z,3.96
2022-11-30T03:26:05.276Z,4.01
2022-11-30T03:28:32.619Z,3.98
2022-11-30T03:30:59.771Z,3.61
2022-11-30T03:33:26.478Z,3.73
2022-11-30T03:36:04.412Z,3.68
2022-11-30T03:38:31.996Z,3.63
2022-11-30T03:41:10.853Z,3.66
2022-11-30T03:43:37.505Z,3.53
2022-11-30T03:46:04.880Z,3.66
2022-11-30T03:48:31.808Z,3.57
2022-11-30T03:50:58.982Z,3.69
2022-11-30T03:53:25.944Z,3.77
2022-11-30T03:56:01.736Z,3.75
2022-11-30T03:58:29.230Z,3.77
2022-11-30T04:01:04.921Z,3.80
2022-11-30T04:03:32.247Z,3.87
2022-11-30T04:05:59.669Z,3.90
2022-11-30T04:08:27.382Z,3.94
2022-11-30T04:10:55.831Z,3.92
2022-11-30T04:13:23.424Z,3.70
2022-11-30T04:15:52.158Z,3.76
2022-11-30T04:18:20.125Z,3.69
2022-11-30T04:20:47.517Z,3.67
2022-11-30T04:23:14.274Z,3.57
2022-11-30T04:25:42.016Z,3.71
2022-11-30T04:28:09.925Z,3.81
2022-11-30T04:30:37.816Z,3.85
2022-11-30T04:33:05.561Z,3.77
2022-11-30T04:35:32.788Z,3.67
2022-11-30T04:38:00.423Z,3.67
2022-11-30T04:40:27.233Z,3.57
2022-11-30T04:42:54.084Z,3.57
2022-11-30T04:45:20.777Z,3.42
2022-11-30T04:47:47.425Z,3.46
2022-11-30T04:50:14.048Z,3.45
2022-11-30T04:52:40.685Z,3.57
2022-11-30T04:55:07.764Z,3.83
2022-11-30T04:57:34.505Z,3.88
2022-11-30T05:00:01.159Z,3.61
2022-11-30T05:02:30.520Z,3.79
2022-11-30T05:04:57.143Z,3.64
2022-11-30T05:07:23.792Z,3.76
2022-11-30T05:09:50.537Z,3.84
2022-11-30T05:12:17.246Z,3.64
2022-11-30T05:14:43.900Z,3.79
2022-11-30T05:17:10.653Z,3.85
2022-11-30T05:19:37.315Z,3.92
2022-11-30T05:22:03.950Z,3.80
2022-11-30T05:24:30.588Z,3.70
2022-11-30T05:26:57.301Z,3.79
2022-11-30T05:29:24.132Z,3.73
2022-11-30T05:31:51.046Z,3.68
2022-11-30T05:34:17.808Z,3.44
2022-11-30T05:36:44.519Z,3.64
2022-11-30T05:39:11.323Z,3.71
2022-11-30T05:41:38.043Z,3.47
2022-11-30T05:44:05.379Z,3.39
2022-11-30T05:46:32.064Z,3.06
2022-11-30T05:48:58.736Z,3.24
2022-11-30T05:51:25.403Z,3.23
2022-11-30T05:53:52.082Z,3.45
2022-11-30T05:56:20.647Z,3.39
2022-11-30T05:58:48.821Z,3.78
2022-11-30T06:01:24.810Z,3.93
2022-11-30T06:03:52.077Z,3.99
2022-11-30T06:06:19.492Z,4.19
2022-11-30T06:08:47.573Z,4.29
2022-11-30T06:11:15.090Z,4.26
2022-11-30T06:13:41.801Z,4.32
2022-11-30T06:16:09.411Z,4.36
2022-11-30T06:18:37.861Z,4.23
2022-11-30T06:21:07.549Z,4.45
2022-11-30T06:23:34.809Z,4.48
2022-11-30T06:26:06.680Z,4.65
2022-11-30T06:28:33.992Z,4.69
2022-11-30T06:31:03.786Z,4.65
2022-11-30T06:33:30.909Z,4.75
2022-11-30T06:35:57.605Z,4.69
2022-11-30T06:38:25.955Z,4.57
2022-11-30T06:40:53.449Z,4.50
2022-11-30T06:43:20.432Z,4.43
2022-11-30T06:45:47.762Z,4.35
2022-11-30T06:48:14.757Z,4.40
2022-11-30T06:50:45.480Z,4.73
2022-11-30T06:53:15.933Z,4.71
2022-11-30T06:55:43.357Z,4.88
2022-11-30T06:58:11.213Z,4.77
2022-11-30T07:00:41.871Z,5.10
2022-11-30T07:03:09.558Z,5.05
2022-11-30T07:05:44.335Z,5.19
2022-11-30T07:08:12.420Z,5.55
2022-11-30T07:10:41.225Z,5.73
2022-11-30T07:13:12.134Z,5.63
2022-11-30T07:15:40.341Z,5.18
2022-11-30T07:18:08.065Z,5.67
2022-11-30T07:20:35.195Z,5.82
2022-11-30T07:23:20.886Z,5.65
2022-11-30T07:26:06.418Z,5.80
2022-11-30T07:28:35.146Z,6.07
2022-11-30T07:31:03.468Z,6.00
2022-11-30T07:33:31.945Z,5.83
2022-11-30T07:35:59.539Z,5.87
2022-11-30T07:38:26.260Z,5.84
2022-11-30T07:40:53.064Z,5.65
2022-11-30T07:43:19.716Z,5.97
2022-11-30T07:45:52.395Z,5.97
2022-11-30T07:48:20.055Z,6.01
2022-11-30T07:50:47.567Z,5.67
2022-11-30T07:53:15.095Z,6.07
2022-11-30T07:55:42.705Z,5.85
2022-11-30T07:58:16.998Z,5.87
2022-11-30T08:00:44.142Z,5.78
2022-11-30T08:03:10.976Z,5.88
2022-11-30T08:05:37.689Z,5.95
2022-11-30T08:08:04.333Z,5.96
2022-11-30T08:10:31.396Z,6.14
2022-11-30T08:12:58.053Z,5.99
2022-11-30T08:15:31.882Z,5.86
2022-11-30T08:18:05.363Z,5.78
2022-11-30T08:20:32.105Z,5.90
2022-11-30T08:22:58.951Z,6.15
2022-11-30T08:25:25.624Z,5.88
2022-11-30T08:27:52.345Z,6.05
2022-11-30T08:30:19.084Z,5.82
2022-11-30T08:32:45.775Z,5.62
2022-11-30T08:35:12.709Z,5.67
2022-11-30T08:37:39.351Z,5.86
2022-11-30T08:40:06.672Z,5.64
2022-11-30T08:42:33.349Z,5.80
2022-11-30T08:45:00.482Z,5.82
2022-11-30T08:47:30.344Z,6.06
2022-11-30T08:49:58.234Z,5.60
2022-11-30T08:52:25.204Z,5.82
2022-11-30T08:54:52.280Z,5.58
2022-11-30T08:57:21.398Z,5.97
2022-11-30T08:59:48.855Z,6.04
2022-11-30T09:02:18.088Z,6.00
2022-11-30T09:04:47.609Z,5.70
2022-11-30T09:07:14.749Z,5.69
2022-11-30T09:09:41.420Z,5.76
2022-11-30T09:12:08.229Z,5.76
2022-11-30T09:14:35.173Z,5.49
2022-11-30T09:17:02.103Z,5.82
2022-11-30T09:19:28.802Z,5.78
2022-11-30T09:21:55.437Z,5.84
2022-11-30T09:24:22.318Z,5.79
2022-11-30T09:26:49.023Z,5.81
2022-11-30T09:29:20.976Z,5.95
2022-11-30T09:31:49.143Z,6.02
2022-11-30T09:34:15.906Z,6.20
2022-11-30T09:36:42.568Z,6.20
2022-11-30T09:39:12.840Z,6.29
2022-11-30T09:41:58.746Z,6.50
2022-11-30T09:44:34.390Z,6.59
2022-11-30T09:47:25.024Z,6.69
2022-11-30T09:49:54.070Z,6.57
2022-11-30T09:52:33.881Z,6.50
2022-11-30T09:55:07.145Z,6.85
2022-11-30T09:57:33.628Z,7.05
2022-11-30T10:00:05.173Z,6.85
2022-11-30T10:02:38.123Z,6.62
2022-11-30T10:05:20.044Z,7.06
2022-11-30T10:08:17.692Z,7.21
2022-11-30T10:11:03.509Z,7.23
2022-11-30T10:13:48.188Z,7.18
2022-11-30T10:16:42.422Z,7.32
2022-11-30T10:19:21.205Z,7.22
2022-11-30T10:21:57.884Z,7.09
2022-11-30T10:25:03.876Z,7.38
2022-11-30T10:27:48.994Z,7.48
2022-11-30T10:30:18.981Z,7.47
2022-11-30T10:32:51.092Z,7.59
2022-11-30T10:35:28.651Z,7.46
2022-11-30T10:37:58.511Z,7.46
2022-11-30T10:40:49.498Z,7.79
2022-11-30T10:43:34.170Z,7.75
2022-11-30T10:46:00.912Z,7.69
2022-11-30T10:48:33.187Z,8.00
2022-11-30T10:51:01.916Z,7.63
2022-11-30T10:53:28.693Z,7.64
2022-11-30T10:55:57.902Z,7.85
2022-11-30T10:58:36.891Z,7.88
2022-11-30T11:01:10.249Z,7.95
2022-11-30T11:03:37.884Z,7.88
2022-11-30T11:06:15.838Z,8.04
2022-11-30T11:08:42.797Z,7.82
2022-11-30T11:11:39.040Z,8.15
2022-11-30T11:14:16.200Z,7.88
2022-11-30T11:17:00.217Z,8.23
2022-11-30T11:19:34.755Z,8.20
2022-11-30T11:22:04.953Z,7.78
2022-11-30T11:24:32.987Z,7.93
2022-11-30T11:26:59.892Z,7.76
2022-11-30T11:29:33.145Z,7.75
2022-11-30T11:32:26.135Z,8.25
2022-11-30T11:34:53.651Z,8.20
2022-11-30T11:37:29.760Z,8.14
2022-11-30T11:40:08.189Z,8.16
2022-11-30T11:42:43.057Z,8.15
2022-11-30T11:45:23.827Z,8.16
2022-11-30T11:47:59.775Z,8.20
2022-11-30T11:53:55.927Z,7.75
2022-11-30T11:56:27.141Z,8.18
2022-11-30T11:59:23.442Z,7.82
2022-11-30T12:02:29.614Z,8.26
2022-11-30T12:05:02.896Z,7.94
2022-11-30T12:07:38.637Z,7.90
2022-11-30T12:13:17.146Z,8.08
2022-11-30T12:16:05.773Z,8.25
2022-11-30T12:18:32.444Z,8.20
2022-11-30T12:21:15.055Z,7.95
2022-11-30T12:24:03.522Z,8.23
2022-11-30T12:27:04.598Z,8.06
2022-11-30T12:30:17.678Z,8.40
2022-11-30T12:33:03.019Z,8.34
2022-11-30T12:36:07.245Z,8.31
2022-11-30T12:39:11.049Z,8.20
2022-11-30T12:41:53.311Z,7.92
2022-11-30T12:44:42.067Z,7.96
2022-11-30T12:47:30.534Z,8.23
2022-11-30T12:50:26.521Z,8.30
2022-11-30T12:53:28.665Z,8.20
2022-11-30T12:56:12.895Z,8.23
2022-11-30T12:59:11.714Z,8.29
2022-11-30T13:01:41.529Z,8.42
2022-11-30T13:04:13.241Z,8.35
2022-11-30T13:06:45.734Z,8.42
2022-11-30T13:09:29.937Z,8.27
2022-11-30T13:12:03.580Z,8.53
2022-11-30T13:14:31.583Z,8.25
2022-11-30T13:17:19.150Z,8.38
2022-11-30T13:19:49.155Z,8.29
2022-11-30T13:22:51.661Z,8.25
2022-11-30T13:26:07.366Z,8.16
2022-11-30T13:28:50.749Z,8.28
2022-11-30T13:31:24.533Z,8.22
2022-11-30T13:33:53.951Z,8.41
2022-11-30T13:36:41.559Z,8.42
2022-11-30T13:39:14.117Z,8.45
2022-11-30T13:41:49.656Z,8.44
2022-11-30T13:44:24.784Z,8.32
2022-11-30T13:46:53.299Z,8.24
2022-11-30T13:49:28.157Z,8.15
2022-11-30T13:52:20.728Z,8.38
2022-11-30T13:54:46.813Z,8.36
2022-11-30T13:57:28.954Z,8.34
2022-11-30T13:59:57.753Z,8.21
2022-11-30T14:02:33.848Z,8.23
2022-11-30T14:05:18.904Z,8.31
2022-11-30T14:07:47.038Z,8.11
2022-11-30T14:10:40.089Z,8.17
2022-11-30T14:13:09.928Z,8.28
2022-11-30T14:15:39.413Z,8.32
2022-11-30T14:18:09.039Z,8.24
2022-11-30T14:20:57.561Z,8.25
2022-11-30T14:23:39.308Z,8.32
2022-11-30T14:26:12.972Z,8.41
2022-11-30T14:28:52.289Z,8.22
2022-11-30T14:31:25.041Z,8.43
2022-11-30T14:33:54.599Z,8.44
2022-11-30T14:36:23.207Z,8.41
2022-11-30T14:38:49.898Z,8.32
2022-11-30T14:41:22.202Z,7.92
2022-11-30T14:44:07.047Z,8.25
2022-11-30T14:46:35.915Z,8.26
2022-11-30T14:49:22.501Z,8.30
2022-11-30T14:52:03.639Z,7.79
2022-11-30T14:54:33.249Z,7.93
2022-11-30T14:57:07.426Z,7.94
2022-11-30T14:59:48.009Z,8.03
2022-11-30T15:02:20.483Z,7.86
2022-11-30T15:04:49.942Z,7.85
2022-11-30T15:07:17.414Z,7.86
2022-11-30T15:09:47.824Z,7.91
2022-11-30T15:12:23.810Z,8.05
2022-11-30T15:15:05.763Z,8.09
2022-11-30T15:17:47.268Z,7.70
2022-11-30T15:20:20.784Z,7.73
2022-11-30T15:22:47.556Z,8.01
2022-11-30T15:25:14.706Z,7.93
2022-11-30T15:27:42.262Z,7.63
2022-11-30T15:30:18.114Z,7.79
2022-11-30T15:32:46.815Z,7.59
2022-11-30T15:35:23.189Z,7.94
2022-11-30T15:37:50.886Z,7.94
2022-11-30T15:40:33.815Z,8.01
2022-11-30T15:43:01.469Z,7.72
2022-11-30T15:45:31.611Z,7.56
2022-11-30T15:48:00.832Z,7.71
2022-11-30T15:50:30.047Z,8.12
2022-11-30T15:53:00.940Z,7.96
2022-11-30T15:55:40.936Z,7.93
2022-11-30T15:58:23.778Z,7.98
2022-11-30T16:01:12.215Z,8.17
2022-11-30T16:04:07.998Z,8.09
2022-11-30T16:06:34.627Z,8.11
2022-11-30T16:09:18.053Z,8.06
2022-11-30T16:11:44.692Z,8.28
2022-11-30T16:14:16.916Z,8.11
2022-11-30T16:16:44.609Z,8.22
2022-11-30T16:19:11.383Z,8.06
2022-11-30T16:21:38.722Z,7.92
2022-11-30T16:24:05.943Z,8.01
2022-11-30T16:29:20.115Z,7.66
2022-11-30T16:31:46.826Z,8.03
2022-11-30T16:34:13.564Z,7.86
2022-11-30T16:36:40.203Z,7.83
2022-11-30T16:39:06.886Z,8.04
2022-11-30T16:41:35.086Z,7.89
2022-11-30T16:44:01.921Z,8.03
2022-11-30T16:46:30.118Z,8.14
2022-11-30T16:48:56.916Z,8.14
2022-11-30T16:51:28.091Z,8.07
2022-11-30T16:53:55.786Z,7.86
2022-11-30T16:56:22.546Z,7.94
2022-11-30T16:58:49.297Z,7.85
2022-11-30T17:01:38.559Z,7.79
2022-11-30T17:04:22.996Z,7.96
2022-11-30T17:06:53.686Z,8.20
2022-11-30T17:09:23.217Z,8.27
2022-11-30T17:11:51.146Z,8.20
2022-11-30T17:14:18.964Z,8.17
2022-11-30T17:16:45.697Z,7.80
2022-11-30T17:19:12.802Z,7.83
2022-11-30T17:21:42.381Z,8.01
2022-11-30T17:24:09.147Z,7.92
2022-11-30T17:26:35.875Z,7.95
2022-11-30T17:29:03.162Z,8.01
2022-11-30T17:31:30.073Z,8.07
2022-11-30T17:33:56.815Z,7.81
2022-11-30T17:36:23.602Z,8.22
2022-11-30T17:38:50.722Z,8.03
2022-11-30T17:41:19.801Z,7.78
2022-11-30T17:43:48.125Z,8.29
2022-11-30T17:46:17.372Z,8.20
2022-11-30T17:48:44.277Z,8.22
2022-11-30T17:51:11.699Z,8.33
2022-11-30T17:53:39.338Z,8.17
2022-11-30T17:56:07.645Z,7.98
2022-11-30T17:58:41.466Z,8.10
2022-11-30T18:01:24.223Z,8.30
2022-11-30T18:03:53.494Z,8.27
2022-11-30T18:06:20.700Z,8.05
2022-11-30T18:08:47.719Z,8.16
2022-11-30T18:11:20.550Z,8.21
2022-11-30T18:13:48.343Z,8.11
2022-11-30T18:16:18.528Z,8.34
2022-11-30T18:18:47.974Z,7.98
2022-11-30T18:21:18.076Z,8.28
2022-11-30T18:23:45.085Z,8.19
2022-11-30T18:26:14.235Z,8.29
2022-11-30T18:28:41.065Z,8.14
2022-11-30T18:31:07.921Z,7.88
2022-11-30T18:33:36.199Z,8.37
2022-11-30T18:36:06.783Z,8.11
2022-11-30T18:38:38.005Z,8.27
2022-11-30T18:41:06.420Z,8.37
2022-11-30T18:43:34.013Z,8.13
2022-11-30T18:46:05.525Z,8.46
2022-11-30T18:48:32.740Z,8.07
2022-11-30T18:50:59.753Z,8.51
2022-11-30T18:53:26.568Z,8.05
2022-11-30T18:55:53.206Z,8.54
2022-11-30T18:58:19.833Z,8.32
2022-11-30T19:00:46.523Z,8.39
2022-11-30T19:03:13.227Z,8.29
2022-11-30T19:05:40.968Z,8.26
2022-11-30T19:08:11.456Z,8.33
2022-11-30T19:10:40.114Z,8.63
2022-11-30T19:13:07.774Z,8.57
2022-11-30T19:15:42.081Z,8.40
2022-11-30T19:18:11.197Z,8.32
2022-11-30T19:20:41.634Z,8.52
2022-11-30T19:23:08.996Z,8.36
2022-11-30T19:25:35.721Z,8.45
2022-11-30T19:28:02.412Z,8.16
2022-11-30T19:30:29.297Z,8.21
2022-11-30T19:32:56.136Z,8.62
2022-11-30T19:35:25.224Z,8.43
2022-11-30T19:37:52.413Z,8.33
2022-11-30T19:40:19.293Z,8.10
2022-11-30T19:42:46.138Z,8.49
2022-11-30T19:45:12.775Z,8.44
2022-11-30T19:47:39.566Z,8.13
2022-11-30T19:50:06.730Z,8.24
2022-11-30T19:52:33.439Z,8.31
2022-11-30T19:55:00.036Z,8.25
2022-11-30T19:57:26.793Z,8.46
2022-11-30T19:59:53.838Z,8.58
2022-11-30T20:02:20.799Z,8.49
2022-11-30T20:04:47.787Z,8.49
2022-11-30T20:07:15.091Z,8.45
2022-11-30T20:09:41.794Z,8.58
2022-11-30T20:12:08.482Z,8.37
2022-11-30T20:14:36.878Z,8.29
2022-11-30T20:17:06.653Z,8.36
2022-11-30T20:19:33.507Z,8.40
2022-11-30T20:22:00.660Z,8.51
2022-11-30T20:24:27.533Z,8.49
2022-11-30T20:26:54.297Z,8.58
2022-11-30T20:29:21.019Z,8.58
2022-11-30T20:31:49.576Z,8.75
2022-11-30T20:34:16.985Z,8.66
2022-11-30T20:36:44.290Z,8.62
2022-11-30T20:39:11.935Z,8.57
2022-11-30T20:41:38.560Z,8.35
2022-11-30T20:44:05.605Z,8.23
2022-11-30T20:46:36.798Z,8.18
2022-11-30T20:49:11.723Z,8.56
2022-11-30T20:51:38.359Z,8.05
2022-11-30T20:54:07.128Z,8.13
2022-11-30T20:56:38.422Z,8.39
2022-11-30T20:59:08.052Z,8.36
2022-11-30T21:01:35.166Z,8.41
2022-11-30T21:04:02.031Z,8.47
2022-11-30T21:06:32.950Z,8.48
2022-11-30T21:08:59.812Z,8.49
2022-11-30T21:11:27.995Z,8.49
2022-11-30T21:13:56.241Z,8.59
2022-11-30T21:16:28.140Z,8.71
2022-11-30T21:19:00.324Z,8.91
2022-11-30T21:21:32.709Z,8.94
2022-11-30T21:24:01.294Z,8.99
2022-11-30T21:26:34.028Z,8.68
2022-11-30T21:29:04.140Z,8.53
2022-11-30T21:31:31.530Z,8.40
2022-11-30T21:33:58.259Z,8.25
2022-11-30T21:36:25.396Z,8.49
2022-11-30T21:39:06.136Z,8.50
2022-11-30T21:41:38.875Z,8.31
2022-11-30T21:44:07.653Z,8.44
2022-11-30T21:46:34.489Z,8.38
2022-11-30T21:49:01.766Z,8.40
2022-11-30T21:51:30.179Z,8.21
2022-11-30T21:53:59.065Z,8.32
2022-11-30T21:56:28.592Z,8.18
2022-11-30T21:58:55.851Z,8.35
2022-11-30T22:01:29.777Z,8.36
2022-11-30T22:03:59.182Z,8.54
2022-11-30T22:06:27.705Z,8.43
2022-11-30T22:08:57.501Z,8.55
2022-11-30T22:11:24.194Z,8.77
2022-11-30T22:13:53.013Z,8.78
2022-11-30T22:16:21.899Z,8.66
2022-11-30T22:18:51.781Z,8.83
2022-11-30T22:21:21.325Z,8.74
2022-11-30T22:23:56.703Z,8.82
2022-11-30T22:26:29.295Z,8.83
2022-11-30T22:29:11.253Z,8.94
2022-11-30T22:31:40.366Z,8.49
2022-11-30T22:34:07.522Z,8.47
2022-11-30T22:36:36.462Z,8.42
2022-11-30T22:39:03.012Z,8.39
2022-11-30T22:41:30.751Z,8.68
2022-11-30T22:43:58.784Z,8.66
2022-11-30T22:46:31.124Z,8.64
2022-11-30T22:49:02.652Z,8.92
2022-11-30T22:51:32.241Z,8.72
2022-11-30T22:54:00.081Z,8.82
2022-11-30T22:56:32.736Z,8.89
2022-11-30T22:59:00.969Z,8.93
2022-11-30T23:01:30.738Z,9.08
2022-11-30T23:04:12.208Z,8.85
2022-11-30T23:06:40.399Z,9.12
2022-11-30T23:09:10.947Z,9.27
2022-11-30T23:11:38.009Z,9.21
2022-11-30T23:14:08.267Z,8.88
2022-11-30T23:16:36.379Z,9.10
2022-11-30T23:19:03.581Z,9.10
2022-11-30T23:21:41.010Z,9.11
2022-11-30T23:24:12.534Z,9.07
2022-11-30T23:26:39.866Z,8.87
2022-11-30T23:29:10.245Z,8.72
2022-11-30T23:31:39.734Z,8.82
2022-11-30T23:34:10.778Z,8.98
2022-11-30T23:36:38.273Z,8.69
2022-11-30T23:39:08.202Z,8.93
2022-11-30T23:41:35.591Z,8.68
2022-11-30T23:44:02.870Z,8.52
2022-11-30T23:46:30.073Z,8.39
2022-11-30T23:48:57.057Z,8.24
2022-11-30T23:51:24.715Z,8.40
2022-11-30T23:53:51.520Z,8.14
2022-11-30T23:56:19.650Z,8.46
2022-11-30T23:58:46.910Z,8.45
